Terminal Aerodrome Forecast
Issued by NWS Duluth, MN

Home | Current Version | Previous Version | Text Only | Print | Product List | Glossary On
Versions: 1 2 3 4 5 6 7 8 9 10 11 12 13 14 15 16 17 18
000
FTUS43 KDLH 270900 AAA
TAFINL
TAF AMD
KINL 270918Z 2709/2806 36004KT P6SM VCSH SCT025 OVC035
      TEMPO 2709/2712 4SM -RA BKN025 OVC035
     FM271200 01008KT P6SM VCSH BKN025 OVC040
     FM271500 02012G20KT P6SM VCSH BKN025 OVC035
     FM271800 02012KT P6SM SCT025 BKN035
     FM280000 36005KT P6SM SCT040=

USA.gov is the U.S. government's official web portal to all federal, state and local government web resources and services.